sensor_id;sensor_type;location;lat;lon;timestamp;P1;durP1;ratioP1;P2;durP2;ratioP2
8859;SDS011;4466;50.948;4.832;2024-03-22T00:01:05;43.78;;;31.67;;
8859;SDS011;4466;50.948;4.832;2024-03-22T00:03:31;43.35;;;31.52;;
8859;SDS011;4466;50.948;4.832;2024-03-22T00:08:25;43.15;;;30.60;;
8859;SDS011;4466;50.948;4.832;2024-03-22T00:10:51;44.80;;;31.17;;
8859;SDS011;4466;50.948;4.832;2024-03-22T00:13:17;47.00;;;32.22;;
8859;SDS011;4466;50.948;4.832;2024-03-22T00:15:43;43.13;;;30.88;;
8859;SDS011;4466;50.948;4.832;2024-03-22T00:18:09;40.78;;;30.63;;
8859;SDS011;4466;50.948;4.832;2024-03-22T00:20:35;44.60;;;30.85;;
8859;SDS011;4466;50.948;4.832;2024-03-22T00:23:00;44.55;;;30.27;;
8859;SDS011;4466;50.948;4.832;2024-03-22T00:25:26;44.80;;;31.98;;
8859;SDS011;4466;50.948;4.832;2024-03-22T00:27:52;42.97;;;30.38;;
8859;SDS011;4466;50.948;4.832;2024-03-22T00:30:17;41.50;;;30.08;;
8859;SDS011;4466;50.948;4.832;2024-03-22T00:32:43;46.83;;;29.60;;
8859;SDS011;4466;50.948;4.832;2024-03-22T00:35:09;40.72;;;29.85;;
8859;SDS011;4466;50.948;4.832;2024-03-22T00:37:35;44.17;;;29.70;;
8859;SDS011;4466;50.948;4.832;2024-03-22T00:40:01;41.83;;;29.52;;
8859;SDS011;4466;50.948;4.832;2024-03-22T00:42:27;39.42;;;28.20;;
8859;SDS011;4466;50.948;4.832;2024-03-22T00:44:52;37.67;;;27.48;;
8859;SDS011;4466;50.948;4.832;2024-03-22T00:47:20;39.38;;;29.13;;
8859;SDS011;4466;50.948;4.832;2024-03-22T00:49:45;39.63;;;28.02;;
8859;SDS011;4466;50.948;4.832;2024-03-22T00:52:11;38.33;;;27.35;;
8859;SDS011;4466;50.948;4.832;2024-03-22T00:54:36;42.13;;;28.70;;
8859;SDS011;4466;50.948;4.832;2024-03-22T00:57:04;41.22;;;28.63;;
8859;SDS011;4466;50.948;4.832;2024-03-22T00:59:30;39.65;;;27.23;;
8859;SDS011;4466;50.948;4.832;2024-03-22T01:01:55;39.15;;;27.65;;
8859;SDS011;4466;50.948;4.832;2024-03-22T01:04:21;39.08;;;26.90;;
8859;SDS011;4466;50.948;4.832;2024-03-22T01:06:46;38.33;;;26.42;;
8859;SDS011;4466;50.948;4.832;2024-03-22T01:09:12;36.65;;;25.92;;
8859;SDS011;4466;50.948;4.832;2024-03-22T01:11:37;36.58;;;26.08;;
8859;SDS011;4466;50.948;4.832;2024-03-22T01:14:03;40.28;;;26.83;;
8859;SDS011;4466;50.948;4.832;2024-03-22T01:16:29;41.85;;;27.35;;
8859;SDS011;4466;50.948;4.832;2024-03-22T01:18:54;39.42;;;26.45;;
8859;SDS011;4466;50.948;4.832;2024-03-22T01:21:20;39.45;;;26.70;;
8859;SDS011;4466;50.948;4.832;2024-03-22T01:23:50;38.40;;;27.73;;
8859;SDS011;4466;50.948;4.832;2024-03-22T01:26:17;37.20;;;25.95;;
8859;SDS011;4466;50.948;4.832;2024-03-22T01:28:43;37.15;;;25.92;;
8859;SDS011;4466;50.948;4.832;2024-03-22T01:31:08;38.30;;;26.73;;
8859;SDS011;4466;50.948;4.832;2024-03-22T01:33:34;38.65;;;26.50;;
8859;SDS011;4466;50.948;4.832;2024-03-22T01:35:59;36.90;;;26.27;;
8859;SDS011;4466;50.948;4.832;2024-03-22T01:38:25;38.10;;;27.25;;
8859;SDS011;4466;50.948;4.832;2024-03-22T01:40:51;37.53;;;26.20;;
8859;SDS011;4466;50.948;4.832;2024-03-22T01:43:16;34.80;;;26.25;;
8859;SDS011;4466;50.948;4.832;2024-03-22T01:45:42;38.53;;;26.85;;
8859;SDS011;4466;50.948;4.832;2024-03-22T01:48:08;39.27;;;27.97;;
8859;SDS011;4466;50.948;4.832;2024-03-22T01:50:33;38.35;;;27.23;;
8859;SDS011;4466;50.948;4.832;2024-03-22T01:53:00;37.25;;;26.95;;
8859;SDS011;4466;50.948;4.832;2024-03-22T01:55:26;39.10;;;27.33;;
8859;SDS011;4466;50.948;4.832;2024-03-22T01:57:53;36.73;;;26.23;;
8859;SDS011;4466;50.948;4.832;2024-03-22T02:00:20;40.20;;;27.88;;
8859;SDS011;4466;50.948;4.832;2024-03-22T02:02:46;38.47;;;27.17;;
8859;SDS011;4466;50.948;4.832;2024-03-22T02:05:15;40.00;;;27.33;;
8859;SDS011;4466;50.948;4.832;2024-03-22T02:07:44;41.77;;;27.60;;
8859;SDS011;4466;50.948;4.832;2024-03-22T02:10:13;39.72;;;28.05;;
8859;SDS011;4466;50.948;4.832;2024-03-22T02:12:39;40.33;;;27.00;;
8859;SDS011;4466;50.948;4.832;2024-03-22T02:15:06;38.80;;;26.93;;
8859;SDS011;4466;50.948;4.832;2024-03-22T02:17:33;41.53;;;27.83;;
8859;SDS011;4466;50.948;4.832;2024-03-22T02:19:59;38.85;;;26.45;;
8859;SDS011;4466;50.948;4.832;2024-03-22T02:22:26;40.10;;;27.00;;
8859;SDS011;4466;50.948;4.832;2024-03-22T02:24:52;37.33;;;26.90;;
8859;SDS011;4466;50.948;4.832;2024-03-22T02:27:17;37.50;;;25.63;;
8859;SDS011;4466;50.948;4.832;2024-03-22T02:29:43;36.43;;;25.47;;
8859;SDS011;4466;50.948;4.832;2024-03-22T02:32:09;34.73;;;24.73;;
8859;SDS011;4466;50.948;4.832;2024-03-22T02:34:35;34.35;;;24.63;;
8859;SDS011;4466;50.948;4.832;2024-03-22T02:37:01;35.35;;;24.85;;
8859;SDS011;4466;50.948;4.832;2024-03-22T02:39:27;33.93;;;24.50;;
8859;SDS011;4466;50.948;4.832;2024-03-22T02:41:53;35.03;;;24.40;;
8859;SDS011;4466;50.948;4.832;2024-03-22T02:44:19;32.88;;;23.52;;
8859;SDS011;4466;50.948;4.832;2024-03-22T02:46:45;32.67;;;23.60;;
8859;SDS011;4466;50.948;4.832;2024-03-22T02:49:11;33.67;;;24.10;;
8859;SDS011;4466;50.948;4.832;2024-03-22T02:51:37;33.33;;;23.47;;
8859;SDS011;4466;50.948;4.832;2024-03-22T02:54:03;33.95;;;23.08;;
8859;SDS011;4466;50.948;4.832;2024-03-22T02:56:29;32.97;;;23.03;;
8859;SDS011;4466;50.948;4.832;2024-03-22T02:58:55;32.17;;;22.47;;
8859;SDS011;4466;50.948;4.832;2024-03-22T03:01:21;35.60;;;23.07;;
8859;SDS011;4466;50.948;4.832;2024-03-22T03:03:46;31.27;;;21.40;;
8859;SDS011;4466;50.948;4.832;2024-03-22T03:06:12;33.90;;;21.47;;
8859;SDS011;4466;50.948;4.832;2024-03-22T03:08:42;35.53;;;21.73;;
8859;SDS011;4466;50.948;4.832;2024-03-22T03:11:07;32.70;;;21.08;;
8859;SDS011;4466;50.948;4.832;2024-03-22T03:13:33;29.87;;;20.13;;
8859;SDS011;4466;50.948;4.832;2024-03-22T03:15:58;29.07;;;21.00;;
8859;SDS011;4466;50.948;4.832;2024-03-22T03:18:24;31.30;;;20.93;;
8859;SDS011;4466;50.948;4.832;2024-03-22T03:20:50;32.43;;;21.70;;
8859;SDS011;4466;50.948;4.832;2024-03-22T03:23:15;32.55;;;19.98;;
8859;SDS011;4466;50.948;4.832;2024-03-22T03:25:41;28.43;;;18.97;;
8859;SDS011;4466;50.948;4.832;2024-03-22T03:28:06;28.57;;;19.67;;
8859;SDS011;4466;50.948;4.832;2024-03-22T03:30:32;28.83;;;19.03;;
8859;SDS011;4466;50.948;4.832;2024-03-22T03:32:59;28.57;;;19.50;;
8859;SDS011;4466;50.948;4.832;2024-03-22T03:35:25;28.40;;;18.57;;
8859;SDS011;4466;50.948;4.832;2024-03-22T03:37:52;31.48;;;19.52;;
8859;SDS011;4466;50.948;4.832;2024-03-22T03:40:17;28.90;;;18.27;;
8859;SDS011;4466;50.948;4.832;2024-03-22T03:42:43;28.20;;;18.15;;
8859;SDS011;4466;50.948;4.832;2024-03-22T03:45:08;26.65;;;18.02;;
8859;SDS011;4466;50.948;4.832;2024-03-22T03:47:34;30.13;;;18.58;;
8859;SDS011;4466;50.948;4.832;2024-03-22T03:50:00;24.35;;;17.27;;
8859;SDS011;4466;50.948;4.832;2024-03-22T03:52:25;28.65;;;17.58;;
8859;SDS011;4466;50.948;4.832;2024-03-22T03:54:51;25.63;;;16.33;;
8859;SDS011;4466;50.948;4.832;2024-03-22T03:57:16;23.70;;;16.00;;
8859;SDS011;4466;50.948;4.832;2024-03-22T03:59:42;23.20;;;17.17;;
8859;SDS011;4466;50.948;4.832;2024-03-22T04:02:08;24.33;;;16.70;;
8859;SDS011;4466;50.948;4.832;2024-03-22T04:04:33;20.93;;;15.93;;
8859;SDS011;4466;50.948;4.832;2024-03-22T04:06:59;20.73;;;15.73;;
8859;SDS011;4466;50.948;4.832;2024-03-22T04:09:24;22.60;;;15.50;;
8859;SDS011;4466;50.948;4.832;2024-03-22T04:11:50;21.87;;;15.67;;
8859;SDS011;4466;50.948;4.832;2024-03-22T04:14:16;20.52;;;15.77;;
8859;SDS011;4466;50.948;4.832;2024-03-22T04:16:41;20.53;;;15.27;;
8859;SDS011;4466;50.948;4.832;2024-03-22T04:19:07;21.33;;;15.47;;
8859;SDS011;4466;50.948;4.832;2024-03-22T04:21:32;23.37;;;15.50;;
8859;SDS011;4466;50.948;4.832;2024-03-22T04:23:58;20.13;;;15.17;;
8859;SDS011;4466;50.948;4.832;2024-03-22T04:26:24;19.63;;;14.13;;
8859;SDS011;4466;50.948;4.832;2024-03-22T04:28:49;20.97;;;14.37;;
8859;SDS011;4466;50.948;4.832;2024-03-22T04:31:15;21.03;;;15.10;;
8859;SDS011;4466;50.948;4.832;2024-03-22T04:33:41;19.70;;;14.10;;
8859;SDS011;4466;50.948;4.832;2024-03-22T04:36:06;18.33;;;14.77;;
8859;SDS011;4466;50.948;4.832;2024-03-22T04:38:34;19.37;;;14.80;;
8859;SDS011;4466;50.948;4.832;2024-03-22T04:41:00;20.57;;;14.30;;
8859;SDS011;4466;50.948;4.832;2024-03-22T04:43:26;20.88;;;14.60;;
8859;SDS011;4466;50.948;4.832;2024-03-22T04:45:53;17.97;;;13.43;;
8859;SDS011;4466;50.948;4.832;2024-03-22T04:48:19;16.20;;;12.73;;
8859;SDS011;4466;50.948;4.832;2024-03-22T04:50:46;19.55;;;14.15;;
8859;SDS011;4466;50.948;4.832;2024-03-22T04:53:15;18.37;;;13.60;;
8859;SDS011;4466;50.948;4.832;2024-03-22T04:55:46;18.20;;;13.67;;
8859;SDS011;4466;50.948;4.832;2024-03-22T04:58:13;19.63;;;13.43;;
8859;SDS011;4466;50.948;4.832;2024-03-22T05:00:39;17.30;;;13.33;;
8859;SDS011;4466;50.948;4.832;2024-03-22T05:03:05;17.73;;;12.43;;
8859;SDS011;4466;50.948;4.832;2024-03-22T05:05:31;16.42;;;12.80;;
8859;SDS011;4466;50.948;4.832;2024-03-22T05:07:56;17.88;;;12.30;;
8859;SDS011;4466;50.948;4.832;2024-03-22T05:10:22;17.90;;;12.60;;
8859;SDS011;4466;50.948;4.832;2024-03-22T05:12:47;15.73;;;12.18;;
8859;SDS011;4466;50.948;4.832;2024-03-22T05:15:13;16.37;;;12.40;;
8859;SDS011;4466;50.948;4.832;2024-03-22T05:17:39;18.90;;;12.77;;
8859;SDS011;4466;50.948;4.832;2024-03-22T05:20:06;16.77;;;12.55;;
8859;SDS011;4466;50.948;4.832;2024-03-22T05:22:36;16.27;;;11.90;;
8859;SDS011;4466;50.948;4.832;2024-03-22T05:25:02;16.40;;;11.70;;
8859;SDS011;4466;50.948;4.832;2024-03-22T05:27:28;13.70;;;10.90;;
8859;SDS011;4466;50.948;4.832;2024-03-22T05:29:55;15.07;;;11.43;;
8859;SDS011;4466;50.948;4.832;2024-03-22T05:32:21;14.65;;;11.50;;
8859;SDS011;4466;50.948;4.832;2024-03-22T05:34:47;15.65;;;11.45;;
8859;SDS011;4466;50.948;4.832;2024-03-22T05:37:12;17.65;;;11.30;;
8859;SDS011;4466;50.948;4.832;2024-03-22T05:39:38;17.42;;;10.98;;
8859;SDS011;4466;50.948;4.832;2024-03-22T05:42:05;16.77;;;11.60;;
8859;SDS011;4466;50.948;4.832;2024-03-22T05:44:31;15.25;;;11.05;;
8859;SDS011;4466;50.948;4.832;2024-03-22T05:46:57;14.60;;;11.10;;
8859;SDS011;4466;50.948;4.832;2024-03-22T05:49:23;15.70;;;11.00;;
8859;SDS011;4466;50.948;4.832;2024-03-22T05:51:48;15.60;;;10.87;;
8859;SDS011;4466;50.948;4.832;2024-03-22T05:54:14;15.00;;;10.20;;
8859;SDS011;4466;50.948;4.832;2024-03-22T05:56:40;15.13;;;10.30;;
8859;SDS011;4466;50.948;4.832;2024-03-22T05:59:05;14.60;;;9.63;;
8859;SDS011;4466;50.948;4.832;2024-03-22T06:01:31;12.97;;;9.87;;
8859;SDS011;4466;50.948;4.832;2024-03-22T06:03:57;14.98;;;10.15;;
8859;SDS011;4466;50.948;4.832;2024-03-22T06:06:23;13.50;;;10.10;;
8859;SDS011;4466;50.948;4.832;2024-03-22T06:08:51;12.10;;;9.47;;
8859;SDS011;4466;50.948;4.832;2024-03-22T06:11:22;13.57;;;9.43;;
8859;SDS011;4466;50.948;4.832;2024-03-22T06:13:48;12.70;;;9.67;;
8859;SDS011;4466;50.948;4.832;2024-03-22T06:16:14;14.73;;;9.37;;
8859;SDS011;4466;50.948;4.832;2024-03-22T06:18:40;12.90;;;10.23;;
8859;SDS011;4466;50.948;4.832;2024-03-22T06:21:05;13.90;;;10.90;;
8859;SDS011;4466;50.948;4.832;2024-03-22T06:23:31;16.07;;;10.37;;
8859;SDS011;4466;50.948;4.832;2024-03-22T06:25:57;14.00;;;10.27;;
8859;SDS011;4466;50.948;4.832;2024-03-22T06:28:24;13.88;;;9.95;;
8859;SDS011;4466;50.948;4.832;2024-03-22T06:30:52;15.27;;;10.93;;
8859;SDS011;4466;50.948;4.832;2024-03-22T06:33:19;12.30;;;10.20;;
8859;SDS011;4466;50.948;4.832;2024-03-22T06:35:45;16.27;;;11.87;;
8859;SDS011;4466;50.948;4.832;2024-03-22T06:38:14;20.15;;;11.65;;
8859;SDS011;4466;50.948;4.832;2024-03-22T06:40:40;14.50;;;11.20;;
8859;SDS011;4466;50.948;4.832;2024-03-22T06:43:06;16.02;;;10.90;;
8859;SDS011;4466;50.948;4.832;2024-03-22T06:45:31;16.23;;;11.30;;
8859;SDS011;4466;50.948;4.832;2024-03-22T06:47:57;14.63;;;11.23;;
8859;SDS011;4466;50.948;4.832;2024-03-22T06:50:22;15.83;;;11.43;;
8859;SDS011;4466;50.948;4.832;2024-03-22T06:52:51;14.60;;;11.10;;
8859;SDS011;4466;50.948;4.832;2024-03-22T06:55:18;16.90;;;11.47;;
8859;SDS011;4466;50.948;4.832;2024-03-22T06:57:48;15.57;;;11.23;;
8859;SDS011;4466;50.948;4.832;2024-03-22T07:00:14;13.15;;;10.45;;
8859;SDS011;4466;50.948;4.832;2024-03-22T07:02:41;16.70;;;10.73;;
8859;SDS011;4466;50.948;4.832;2024-03-22T07:05:07;17.67;;;11.23;;
8859;SDS011;4466;50.948;4.832;2024-03-22T07:07:34;12.80;;;10.40;;
8859;SDS011;4466;50.948;4.832;2024-03-22T07:10:00;13.97;;;10.97;;
8859;SDS011;4466;50.948;4.832;2024-03-22T07:12:33;17.23;;;11.20;;
8859;SDS011;4466;50.948;4.832;2024-03-22T07:15:01;14.63;;;11.23;;
8859;SDS011;4466;50.948;4.832;2024-03-22T07:17:28;17.38;;;10.38;;
8859;SDS011;4466;50.948;4.832;2024-03-22T07:19:54;12.50;;;9.85;;
8859;SDS011;4466;50.948;4.832;2024-03-22T07:22:21;13.52;;;10.85;;
8859;SDS011;4466;50.948;4.832;2024-03-22T07:24:47;15.43;;;11.38;;
8859;SDS011;4466;50.948;4.832;2024-03-22T07:27:14;15.60;;;11.55;;
8859;SDS011;4466;50.948;4.832;2024-03-22T07:29:40;14.10;;;11.20;;
8859;SDS011;4466;50.948;4.832;2024-03-22T07:32:09;13.87;;;11.10;;
8859;SDS011;4466;50.948;4.832;2024-03-22T07:34:34;14.50;;;11.33;;
8859;SDS011;4466;50.948;4.832;2024-03-22T07:37:00;15.60;;;10.82;;
8859;SDS011;4466;50.948;4.832;2024-03-22T07:39:26;18.90;;;11.43;;
8859;SDS011;4466;50.948;4.832;2024-03-22T07:41:51;18.75;;;12.07;;
8859;SDS011;4466;50.948;4.832;2024-03-22T07:44:17;14.80;;;11.30;;
8859;SDS011;4466;50.948;4.832;2024-03-22T07:46:44;13.80;;;11.13;;
8859;SDS011;4466;50.948;4.832;2024-03-22T07:49:13;16.20;;;11.37;;
8859;SDS011;4466;50.948;4.832;2024-03-22T07:51:39;16.63;;;11.33;;
8859;SDS011;4466;50.948;4.832;2024-03-22T07:54:05;15.10;;;11.40;;
8859;SDS011;4466;50.948;4.832;2024-03-22T07:56:30;14.77;;;11.32;;
8859;SDS011;4466;50.948;4.832;2024-03-22T07:58:56;14.67;;;11.13;;
8859;SDS011;4466;50.948;4.832;2024-03-22T08:01:22;16.67;;;12.27;;
8859;SDS011;4466;50.948;4.832;2024-03-22T08:03:48;13.90;;;10.40;;
8859;SDS011;4466;50.948;4.832;2024-03-22T08:06:14;14.60;;;11.70;;
8859;SDS011;4466;50.948;4.832;2024-03-22T08:08:40;14.80;;;10.75;;
8859;SDS011;4466;50.948;4.832;2024-03-22T08:11:06;12.97;;;10.23;;
8859;SDS011;4466;50.948;4.832;2024-03-22T08:13:31;15.00;;;10.87;;
8859;SDS011;4466;50.948;4.832;2024-03-22T08:15:57;13.40;;;10.63;;
8859;SDS011;4466;50.948;4.832;2024-03-22T08:18:22;16.80;;;11.87;;
8859;SDS011;4466;50.948;4.832;2024-03-22T08:20:48;13.68;;;10.23;;
8859;SDS011;4466;50.948;4.832;2024-03-22T08:23:14;15.50;;;11.10;;
8859;SDS011;4466;50.948;4.832;2024-03-22T08:25:39;14.07;;;11.00;;
8859;SDS011;4466;50.948;4.832;2024-03-22T08:28:05;15.95;;;11.70;;
8859;SDS011;4466;50.948;4.832;2024-03-22T08:30:30;18.02;;;12.27;;
8859;SDS011;4466;50.948;4.832;2024-03-22T08:32:56;18.52;;;12.07;;
8859;SDS011;4466;50.948;4.832;2024-03-22T08:35:22;17.03;;;11.63;;
8859;SDS011;4466;50.948;4.832;2024-03-22T08:37:47;14.30;;;11.27;;
8859;SDS011;4466;50.948;4.832;2024-03-22T08:40:13;14.45;;;11.43;;
8859;SDS011;4466;50.948;4.832;2024-03-22T08:42:39;13.27;;;10.85;;
8859;SDS011;4466;50.948;4.832;2024-03-22T08:45:05;14.35;;;10.82;;
8859;SDS011;4466;50.948;4.832;2024-03-22T08:47:31;15.60;;;10.98;;
8859;SDS011;4466;50.948;4.832;2024-03-22T08:49:58;14.53;;;10.50;;
8859;SDS011;4466;50.948;4.832;2024-03-22T08:52:24;14.50;;;10.73;;
8859;SDS011;4466;50.948;4.832;2024-03-22T08:54:50;13.25;;;10.95;;
8859;SDS011;4466;50.948;4.832;2024-03-22T08:57:17;14.35;;;10.63;;
8859;SDS011;4466;50.948;4.832;2024-03-22T08:59:42;14.02;;;10.05;;
8859;SDS011;4466;50.948;4.832;2024-03-22T09:02:08;12.27;;;10.00;;
8859;SDS011;4466;50.948;4.832;2024-03-22T09:04:34;13.25;;;9.95;;
8859;SDS011;4466;50.948;4.832;2024-03-22T09:06:59;12.57;;;10.10;;
8859;SDS011;4466;50.948;4.832;2024-03-22T09:09:25;9.73;;;8.32;;
8859;SDS011;4466;50.948;4.832;2024-03-22T09:11:50;10.27;;;8.25;;
8859;SDS011;4466;50.948;4.832;2024-03-22T09:14:16;13.32;;;8.95;;
8859;SDS011;4466;50.948;4.832;2024-03-22T09:16:42;13.35;;;9.18;;
8859;SDS011;4466;50.948;4.832;2024-03-22T09:19:07;10.50;;;8.90;;
8859;SDS011;4466;50.948;4.832;2024-03-22T09:21:33;12.88;;;9.05;;
8859;SDS011;4466;50.948;4.832;2024-03-22T09:23:59;13.52;;;10.23;;
8859;SDS011;4466;50.948;4.832;2024-03-22T09:26:24;13.02;;;9.52;;
8859;SDS011;4466;50.948;4.832;2024-03-22T09:28:50;13.70;;;9.60;;
8859;SDS011;4466;50.948;4.832;2024-03-22T09:31:16;12.25;;;10.13;;
8859;SDS011;4466;50.948;4.832;2024-03-22T09:33:42;13.77;;;10.40;;
8859;SDS011;4466;50.948;4.832;2024-03-22T09:36:08;13.75;;;11.38;;
8859;SDS011;4466;50.948;4.832;2024-03-22T09:38:34;13.32;;;10.23;;
8859;SDS011;4466;50.948;4.832;2024-03-22T09:40:59;13.30;;;10.52;;
8859;SDS011;4466;50.948;4.832;2024-03-22T09:43:27;12.23;;;10.52;;
8859;SDS011;4466;50.948;4.832;2024-03-22T09:45:54;12.48;;;10.23;;
8859;SDS011;4466;50.948;4.832;2024-03-22T09:48:20;12.30;;;10.02;;
8859;SDS011;4466;50.948;4.832;2024-03-22T09:50:47;15.45;;;10.32;;
8859;SDS011;4466;50.948;4.832;2024-03-22T09:53:13;13.85;;;9.90;;
8859;SDS011;4466;50.948;4.832;2024-03-22T09:55:42;11.52;;;9.70;;
8859;SDS011;4466;50.948;4.832;2024-03-22T09:58:10;13.63;;;9.90;;
8859;SDS011;4466;50.948;4.832;2024-03-22T10:00:36;13.05;;;9.70;;
8859;SDS011;4466;50.948;4.832;2024-03-22T10:03:02;13.18;;;9.98;;
8859;SDS011;4466;50.948;4.832;2024-03-22T10:05:30;15.88;;;9.63;;
8859;SDS011;4466;50.948;4.832;2024-03-22T10:07:56;12.27;;;9.43;;
8859;SDS011;4466;50.948;4.832;2024-03-22T10:10:22;13.13;;;9.43;;
8859;SDS011;4466;50.948;4.832;2024-03-22T10:12:48;11.55;;;9.02;;
8859;SDS011;4466;50.948;4.832;2024-03-22T10:15:14;11.57;;;9.43;;
8859;SDS011;4466;50.948;4.832;2024-03-22T10:17:40;12.25;;;9.07;;
8859;SDS011;4466;50.948;4.832;2024-03-22T10:20:06;11.85;;;8.93;;
8859;SDS011;4466;50.948;4.832;2024-03-22T10:22:48;12.07;;;9.18;;
8859;SDS011;4466;50.948;4.832;2024-03-22T10:25:20;12.27;;;9.00;;
8859;SDS011;4466;50.948;4.832;2024-03-22T10:27:45;12.85;;;9.65;;
8859;SDS011;4466;50.948;4.832;2024-03-22T10:30:11;11.52;;;8.90;;
8859;SDS011;4466;50.948;4.832;2024-03-22T10:32:40;11.40;;;9.48;;
8859;SDS011;4466;50.948;4.832;2024-03-22T10:35:06;12.18;;;8.80;;
8859;SDS011;4466;50.948;4.832;2024-03-22T10:37:36;10.77;;;8.30;;
8859;SDS011;4466;50.948;4.832;2024-03-22T10:40:02;12.95;;;9.18;;
8859;SDS011;4466;50.948;4.832;2024-03-22T10:42:33;9.68;;;8.32;;
8859;SDS011;4466;50.948;4.832;2024-03-22T10:44:59;11.80;;;8.55;;
8859;SDS011;4466;50.948;4.832;2024-03-22T10:47:25;12.50;;;9.13;;
8859;SDS011;4466;50.948;4.832;2024-03-22T10:49:55;14.20;;;9.75;;
8859;SDS011;4466;50.948;4.832;2024-03-22T10:55:33;13.48;;;8.50;;
8859;SDS011;4466;50.948;4.832;2024-03-22T10:58:01;12.13;;;8.82;;
8859;SDS011;4466;50.948;4.832;2024-03-22T11:00:28;12.35;;;8.93;;
8859;SDS011;4466;50.948;4.832;2024-03-22T11:02:57;13.43;;;9.40;;
8859;SDS011;4466;50.948;4.832;2024-03-22T11:05:23;18.63;;;9.68;;
8859;SDS011;4466;50.948;4.832;2024-03-22T11:10:28;13.38;;;10.05;;
8859;SDS011;4466;50.948;4.832;2024-03-22T11:12:55;14.75;;;9.50;;
8859;SDS011;4466;50.948;4.832;2024-03-22T11:15:22;15.68;;;10.20;;
8859;SDS011;4466;50.948;4.832;2024-03-22T11:17:47;13.05;;;9.60;;
8859;SDS011;4466;50.948;4.832;2024-03-22T11:20:14;13.15;;;9.80;;
8859;SDS011;4466;50.948;4.832;2024-03-22T11:22:40;12.45;;;9.38;;
8859;SDS011;4466;50.948;4.832;2024-03-22T11:25:06;14.05;;;10.38;;
8859;SDS011;4466;50.948;4.832;2024-03-22T11:27:32;12.90;;;9.95;;
8859;SDS011;4466;50.948;4.832;2024-03-22T11:29:58;14.25;;;9.77;;
8859;SDS011;4466;50.948;4.832;2024-03-22T11:32:23;12.77;;;9.82;;
8859;SDS011;4466;50.948;4.832;2024-03-22T11:34:49;15.18;;;10.07;;
8859;SDS011;4466;50.948;4.832;2024-03-22T11:37:15;13.90;;;9.80;;
8859;SDS011;4466;50.948;4.832;2024-03-22T11:39:41;11.95;;;10.15;;
8859;SDS011;4466;50.948;4.832;2024-03-22T11:42:06;13.13;;;10.35;;
8859;SDS011;4466;50.948;4.832;2024-03-22T11:44:34;12.82;;;10.48;;
8859;SDS011;4466;50.948;4.832;2024-03-22T11:47:01;11.50;;;9.73;;
8859;SDS011;4466;50.948;4.832;2024-03-22T11:49:28;13.52;;;10.40;;
8859;SDS011;4466;50.948;4.832;2024-03-22T11:51:54;13.38;;;10.27;;
8859;SDS011;4466;50.948;4.832;2024-03-22T11:54:21;14.50;;;11.00;;
8859;SDS011;4466;50.948;4.832;2024-03-22T11:56:47;13.05;;;10.43;;
8859;SDS011;4466;50.948;4.832;2024-03-22T11:59:13;13.30;;;10.40;;
8859;SDS011;4466;50.948;4.832;2024-03-22T12:01:39;19.35;;;10.68;;
8859;SDS011;4466;50.948;4.832;2024-03-22T12:04:06;14.98;;;11.13;;
8859;SDS011;4466;50.948;4.832;2024-03-22T12:09:08;15.20;;;11.73;;
8859;SDS011;4466;50.948;4.832;2024-03-22T12:11:36;14.52;;;11.27;;
8859;SDS011;4466;50.948;4.832;2024-03-22T12:14:01;15.98;;;11.05;;
8859;SDS011;4466;50.948;4.832;2024-03-22T12:16:27;17.70;;;11.60;;
8859;SDS011;4466;50.948;4.832;2024-03-22T12:18:53;18.00;;;11.27;;
8859;SDS011;4466;50.948;4.832;2024-03-22T12:21:18;14.63;;;11.07;;
8859;SDS011;4466;50.948;4.832;2024-03-22T12:23:44;13.00;;;10.75;;
8859;SDS011;4466;50.948;4.832;2024-03-22T12:26:09;14.57;;;10.88;;
8859;SDS011;4466;50.948;4.832;2024-03-22T12:28:35;12.98;;;10.90;;
8859;SDS011;4466;50.948;4.832;2024-03-22T12:31:01;16.25;;;11.45;;
8859;SDS011;4466;50.948;4.832;2024-03-22T12:33:26;15.48;;;11.80;;
8859;SDS011;4466;50.948;4.832;2024-03-22T12:35:52;21.02;;;12.10;;
8859;SDS011;4466;50.948;4.832;2024-03-22T12:38:18;16.30;;;12.30;;
8859;SDS011;4466;50.948;4.832;2024-03-22T12:40:44;14.43;;;11.68;;
8859;SDS011;4466;50.948;4.832;2024-03-22T12:43:09;15.95;;;11.77;;
8859;SDS011;4466;50.948;4.832;2024-03-22T12:45:36;18.70;;;11.23;;
8859;SDS011;4466;50.948;4.832;2024-03-22T12:48:02;19.05;;;10.93;;
8859;SDS011;4466;50.948;4.832;2024-03-22T12:50:29;12.68;;;9.65;;
8859;SDS011;4466;50.948;4.832;2024-03-22T12:52:55;11.95;;;8.40;;
8859;SDS011;4466;50.948;4.832;2024-03-22T12:55:21;12.00;;;8.75;;
8859;SDS011;4466;50.948;4.832;2024-03-22T12:57:47;11.48;;;7.63;;
8859;SDS011;4466;50.948;4.832;2024-03-22T13:00:13;10.18;;;8.13;;
8859;SDS011;4466;50.948;4.832;2024-03-22T13:02:43;16.35;;;8.50;;
8859;SDS011;4466;50.948;4.832;2024-03-22T13:05:09;11.30;;;7.78;;
8859;SDS011;4466;50.948;4.832;2024-03-22T13:07:35;12.13;;;8.05;;
8859;SDS011;4466;50.948;4.832;2024-03-22T13:10:01;13.30;;;8.65;;
8859;SDS011;4466;50.948;4.832;2024-03-22T13:12:27;14.65;;;9.45;;
8859;SDS011;4466;50.948;4.832;2024-03-22T13:14:53;14.73;;;8.40;;
8859;SDS011;4466;50.948;4.832;2024-03-22T13:17:20;16.50;;;8.57;;
8859;SDS011;4466;50.948;4.832;2024-03-22T13:19:45;12.45;;;8.07;;
8859;SDS011;4466;50.948;4.832;2024-03-22T13:22:12;14.18;;;8.57;;
8859;SDS011;4466;50.948;4.832;2024-03-22T13:24:37;13.95;;;9.30;;
8859;SDS011;4466;50.948;4.832;2024-03-22T13:27:03;13.63;;;8.65;;
8859;SDS011;4466;50.948;4.832;2024-03-22T13:29:29;16.58;;;9.23;;
8859;SDS011;4466;50.948;4.832;2024-03-22T13:31:54;10.90;;;8.20;;
8859;SDS011;4466;50.948;4.832;2024-03-22T13:34:20;13.23;;;9.07;;
8859;SDS011;4466;50.948;4.832;2024-03-22T13:36:47;16.08;;;9.18;;
8859;SDS011;4466;50.948;4.832;2024-03-22T13:39:12;12.82;;;8.32;;
8859;SDS011;4466;50.948;4.832;2024-03-22T13:41:40;15.23;;;8.43;;
8859;SDS011;4466;50.948;4.832;2024-03-22T13:44:06;12.15;;;7.40;;
8859;SDS011;4466;50.948;4.832;2024-03-22T13:46:33;10.75;;;7.00;;
8859;SDS011;4466;50.948;4.832;2024-03-22T13:49:01;9.80;;;6.68;;
8859;SDS011;4466;50.948;4.832;2024-03-22T13:51:29;11.35;;;6.75;;
8859;SDS011;4466;50.948;4.832;2024-03-22T13:53:56;11.23;;;7.25;;
8859;SDS011;4466;50.948;4.832;2024-03-22T13:56:22;9.65;;;6.82;;
8859;SDS011;4466;50.948;4.832;2024-03-22T13:58:47;9.85;;;6.70;;
8859;SDS011;4466;50.948;4.832;2024-03-22T14:01:14;9.10;;;6.70;;
8859;SDS011;4466;50.948;4.832;2024-03-22T14:03:40;9.82;;;7.30;;
8859;SDS011;4466;50.948;4.832;2024-03-22T14:06:05;12.85;;;7.38;;
8859;SDS011;4466;50.948;4.832;2024-03-22T14:08:31;15.50;;;7.53;;
8859;SDS011;4466;50.948;4.832;2024-03-22T14:10:57;12.00;;;7.47;;
8859;SDS011;4466;50.948;4.832;2024-03-22T14:13:23;11.48;;;6.80;;
8859;SDS011;4466;50.948;4.832;2024-03-22T14:15:48;10.50;;;6.78;;
8859;SDS011;4466;50.948;4.832;2024-03-22T14:18:14;13.85;;;7.30;;
8859;SDS011;4466;50.948;4.832;2024-03-22T14:20:40;12.02;;;7.32;;
8859;SDS011;4466;50.948;4.832;2024-03-22T14:23:06;15.10;;;7.85;;
8859;SDS011;4466;50.948;4.832;2024-03-22T14:25:32;11.95;;;8.05;;
8859;SDS011;4466;50.948;4.832;2024-03-22T14:27:57;12.77;;;7.32;;
8859;SDS011;4466;50.948;4.832;2024-03-22T14:30:23;10.63;;;6.90;;
8859;SDS011;4466;50.948;4.832;2024-03-22T14:32:50;11.52;;;6.60;;
8859;SDS011;4466;50.948;4.832;2024-03-22T14:35:16;10.23;;;7.07;;
8859;SDS011;4466;50.948;4.832;2024-03-22T14:37:41;12.05;;;6.63;;
8859;SDS011;4466;50.948;4.832;2024-03-22T14:40:07;12.10;;;6.32;;
8859;SDS011;4466;50.948;4.832;2024-03-22T14:42:35;10.65;;;5.93;;
8859;SDS011;4466;50.948;4.832;2024-03-22T14:45:04;11.57;;;6.13;;
8859;SDS011;4466;50.948;4.832;2024-03-22T14:47:30;9.90;;;6.18;;
8859;SDS011;4466;50.948;4.832;2024-03-22T14:49:55;14.13;;;6.00;;
8859;SDS011;4466;50.948;4.832;2024-03-22T14:52:21;8.68;;;5.50;;
8859;SDS011;4466;50.948;4.832;2024-03-22T14:54:46;9.95;;;6.15;;
8859;SDS011;4466;50.948;4.832;2024-03-22T14:57:12;11.88;;;6.30;;